Wahpeton, MN

11:42 AM CST on November 15, 2019 (GMT -0600)
Stern

Weather History for KBWP - September, 2019

Change the Weather History Date:

Tuesday, September 3, 2019

  Actual Average (KFFM) Record (KFFM)
Temperature  
Mean Temperature 60 °F -  
Max Temperature 66 °F 75 °F 95 °F (1983)
Min Temperature 53 °F 53 °F 32 °F (1974)
Degree Days  
Heating Degree Days 6    
Growing Degree Days 10 (Base 50)    
Moisture  
Dew Point 53 °F    
Average Humidity 78    
Maximum Humidity 94    
Minimum Humidity 56    
Precipitation  
Precipitation 0.00 in - - ()
Sea Level Pressure  
Sea Level Pressure 29.91 in    
Wind  
Wind Speed 10 mph ()    
Max Wind Speed 24 mph    
Max Gust Speed 34 mph    
Visibility 9.9 miles    
Events      
Averages and records for this station are not official NWS values.
T = Trace of Precipitation, MM = Missing Value Source: Averaged Metar Reports

Daily Weather History Graph

Daily Weather History Graph

Search for Another Location

Airport or City:

Astronomy

Sep. 03, 2019 Rise Set
Actual Time 6:49 AM CDT 8:01 PM CDT
Civil Twilight 6:18 AM CDT 8:32 PM CDT
Nautical Twilight 5:40 AM CDT 9:09 PM CDT
Astronomical Twilight 5:01 AM CDT 9:48 PM CDT
Moon 11:59 AM CDT (9/3) 10:41 PM CDT (9/3)
Length of Visible Light 14h 14m
Length of Day
13h 12m
Waxing Crescent, 25% of the Moon is Illuminated
Sep 3
Waxing Crescent
Sep 5
First Quarter
Sep 13
Full
Sep 21
Last Quarter
Sep 28
New

Hourly Weather History & Observations

Time (CDT) Temp. Dew Point Humidity Pressure Visibility Wind Dir Wind Speed Gust Speed Precip Events Conditions
12:15 AM 59.0 °F 55.4 °F 88% 29.80 in 10.0 mi Calm Calm - N/A   Unknown
12:35 AM 59.0 °F 55.4 °F 88% 29.79 in 10.0 mi Calm Calm - N/A   Unknown
12:55 AM 59.0 °F 55.4 °F 88% 29.79 in 10.0 mi SSW 3.5 mph - N/A   Unknown
1:15 AM 59.0 °F 55.4 °F 88% 29.79 in 10.0 mi SSW 4.6 mph - N/A   Unknown
1:35 AM 59.0 °F 55.4 °F 88% 29.77 in 10.0 mi South 4.6 mph - N/A   Unknown
1:55 AM 59.0 °F 55.4 °F 88% 29.76 in 10.0 mi South 4.6 mph - N/A   Unknown
2:15 AM 59.0 °F 55.4 °F 88% 29.76 in 10.0 mi SSW 4.6 mph - N/A   Unknown
2:35 AM 59.0 °F 55.4 °F 88% 29.77 in 10.0 mi SW 5.8 mph - N/A   Unknown
2:55 AM 59.0 °F 57.2 °F 94% 29.78 in 10.0 mi SW 6.9 mph - N/A   Unknown
3:15 AM 59.0 °F 57.2 °F 94% 29.77 in 10.0 mi SW 6.9 mph - N/A   Unknown
3:35 AM 59.0 °F 57.2 °F 94% 29.77 in 10.0 mi SW 6.9 mph - N/A   Unknown
3:55 AM 59.0 °F 57.2 °F 94% 29.77 in 10.0 mi West 5.8 mph - N/A   Unknown
4:15 AM 60.8 °F 59.0 °F 94% 29.78 in 10.0 mi West 8.1 mph - N/A   Unknown
4:35 AM 60.8 °F 59.0 °F 94% 29.78 in 10.0 mi West 9.2 mph - N/A   Unknown
4:55 AM 60.8 °F 57.2 °F 88% 29.79 in 10.0 mi WNW 11.5 mph - N/A   Unknown
5:15 AM 60.8 °F 59.0 °F 94% 29.81 in 10.0 mi WNW 12.7 mph - N/A   Unknown
5:35 AM 60.8 °F 57.2 °F 88% 29.81 in 10.0 mi WNW 9.2 mph - N/A   Unknown
5:55 AM 59.0 °F 57.2 °F 94% 29.81 in 10.0 mi West 9.2 mph - N/A   Unknown
6:15 AM 59.0 °F 55.4 °F 88% 29.81 in 7.0 mi West 8.1 mph - N/A   Unknown
6:35 AM 59.0 °F 55.4 °F 88% 29.81 in 7.0 mi West 8.1 mph - N/A   Unknown
6:55 AM 59.0 °F 55.4 °F 88% 29.82 in 7.0 mi WNW 11.5 mph 16.1 mph N/A   Unknown
7:15 AM 59.0 °F 55.4 °F 88% 29.83 in 10.0 mi WNW 11.5 mph - N/A   Unknown
7:35 AM 60.8 °F 55.4 °F 82% 29.83 in 10.0 mi WNW 15.0 mph - N/A   Unknown
7:55 AM 60.8 °F 55.4 °F 82% 29.84 in 10.0 mi WNW 16.1 mph - N/A   Unknown
8:15 AM 60.8 °F 55.4 °F 82% 29.84 in 10.0 mi West 15.0 mph - N/A   Unknown
8:35 AM 62.6 °F 55.4 °F 77% 29.85 in 10.0 mi WNW 16.1 mph - N/A   Unknown
8:55 AM 62.6 °F 55.4 °F 77% 29.85 in 10.0 mi WNW 17.3 mph 21.9 mph N/A   Unknown
9:15 AM 62.6 °F 55.4 °F 77% 29.85 in 10.0 mi WNW 19.6 mph 24.2 mph N/A   Unknown
9:35 AM 62.6 °F 53.6 °F 72% 29.85 in 10.0 mi NW 16.1 mph 27.6 mph N/A   Unknown
9:55 AM 64.4 °F 53.6 °F 68% 29.86 in 10.0 mi NW 19.6 mph 25.3 mph N/A   Unknown
10:15 AM 64.4 °F 53.6 °F 68% 29.86 in 10.0 mi NW 20.7 mph 24.2 mph N/A   Unknown
10:35 AM 64.4 °F 53.6 °F 68% 29.86 in 10.0 mi NW 21.9 mph 27.6 mph N/A   Unknown
10:55 AM 64.4 °F 53.6 °F 68% 29.87 in 10.0 mi NW 21.9 mph 27.6 mph N/A   Unknown
11:15 AM 64.4 °F 51.8 °F 64% 29.88 in 10.0 mi NW 20.7 mph 28.8 mph N/A   Unknown
11:35 AM 66.2 °F 51.8 °F 60% 29.88 in 10.0 mi WNW 23.0 mph 28.8 mph N/A   Unknown
11:55 AM 64.4 °F 51.8 °F 64% 29.90 in 10.0 mi NW 18.4 mph - N/A   Unknown
12:15 PM 64.4 °F 51.8 °F 64% 29.90 in 10.0 mi NW 19.6 mph 26.5 mph N/A   Unknown
12:35 PM 66.2 °F 51.8 °F 60% 29.90 in 10.0 mi NW 23.0 mph 28.8 mph N/A   Unknown
12:55 PM 66.2 °F 50.0 °F 56% 29.91 in 10.0 mi NW 24.2 mph 34.5 mph N/A   Unknown
1:15 PM 64.4 °F 51.8 °F 64% 29.92 in 10.0 mi NW 23.0 mph 29.9 mph N/A   Unknown
1:35 PM 64.4 °F 51.8 °F 64% 29.93 in 10.0 mi WNW 21.9 mph 32.2 mph N/A   Unknown
1:55 PM 64.4 °F 51.8 °F 64% 29.94 in 10.0 mi WNW 24.2 mph 29.9 mph N/A   Unknown
2:15 PM 66.2 °F 51.8 °F 60% 29.94 in 10.0 mi WNW 23.0 mph 31.1 mph N/A   Unknown
2:35 PM 66.2 °F 50.0 °F 56% 29.94 in 10.0 mi WNW 24.2 mph 29.9 mph N/A   Unknown
2:55 PM 64.4 °F 50.0 °F 59% 29.95 in 10.0 mi NW 20.7 mph 26.5 mph N/A   Unknown
3:15 PM 62.6 °F 51.8 °F 68% 29.96 in 10.0 mi NW 18.4 mph 23.0 mph N/A   Unknown
3:35 PM 62.6 °F 51.8 °F 68% 29.97 in 10.0 mi NW 19.6 mph 24.2 mph N/A   Unknown
3:55 PM 62.6 °F 51.8 °F 68% 29.97 in 10.0 mi NW 18.4 mph 25.3 mph N/A   Unknown
4:15 PM 62.6 °F 51.8 °F 68% 29.98 in 10.0 mi NW 17.3 mph 23.0 mph N/A   Unknown
4:35 PM 62.6 °F 51.8 °F 68% 29.98 in 10.0 mi NW 17.3 mph 26.5 mph N/A   Unknown
4:55 PM 62.6 °F 51.8 °F 68% 29.99 in 10.0 mi NW 17.3 mph 21.9 mph N/A   Unknown
5:15 PM 62.6 °F 51.8 °F 68% 30.00 in 10.0 mi NNW 16.1 mph 21.9 mph N/A   Unknown
5:35 PM 62.6 °F 51.8 °F 68% 30.00 in 10.0 mi NNW 13.8 mph 19.6 mph N/A   Unknown
5:55 PM 62.6 °F 51.8 °F 68% 30.01 in 10.0 mi North 16.1 mph 20.7 mph N/A   Unknown
6:15 PM 60.8 °F 51.8 °F 72% 30.02 in 10.0 mi NNW 11.5 mph 16.1 mph N/A   Unknown
6:35 PM 60.8 °F 51.8 °F 72% 30.02 in 10.0 mi NNW 11.5 mph - N/A   Unknown
6:55 PM 60.8 °F 51.8 °F 72% 30.03 in 10.0 mi NNW 8.1 mph - N/A   Unknown
7:35 PM 59.0 °F 51.8 °F 77% 30.04 in 10.0 mi NW 9.2 mph - N/A   Unknown
7:55 PM 59.0 °F 51.8 °F 77% 30.05 in 10.0 mi NW 9.2 mph - N/A   Unknown
8:15 PM 59.0 °F 51.8 °F 77% 30.06 in 10.0 mi NW 8.1 mph - N/A   Unknown
8:35 PM 57.2 °F 51.8 °F 82% 30.06 in 10.0 mi NW 9.2 mph - N/A   Unknown
8:55 PM 57.2 °F 51.8 °F 82% 30.08 in 10.0 mi NW 8.1 mph - N/A   Unknown
9:15 PM 57.2 °F 51.8 °F 82% 30.08 in 10.0 mi NW 6.9 mph - N/A   Unknown
9:35 PM 57.2 °F 51.8 °F 82% 30.09 in 10.0 mi NW 6.9 mph - N/A   Unknown
9:55 PM 55.4 °F 51.8 °F 88% 30.10 in 10.0 mi NNW 5.8 mph - N/A   Unknown
10:15 PM 55.4 °F 51.8 °F 88% 30.10 in 10.0 mi NNW 8.1 mph - N/A   Unknown
10:35 PM 55.4 °F 50.0 °F 82% 30.11 in 10.0 mi North 8.1 mph - N/A   Unknown
10:55 PM 55.4 °F 50.0 °F 82% 30.11 in 10.0 mi North 8.1 mph - N/A   Unknown
11:15 PM 53.6 °F 50.0 °F 88% 30.12 in 10.0 mi North 5.8 mph - N/A   Unknown
11:35 PM 53.6 °F 48.2 °F 82% 30.13 in 10.0 mi North 5.8 mph - N/A   Unknown
11:55 PM 53.6 °F 48.2 °F 82% 30.13 in 10.0 mi NNW 4.6 mph - N/A   Unknown